Time;durP1;ratioP1;P1;durP2;ratioP2;P2;SDS_P1;SDS_P2;PMS_P1;PMS_P2;Temp;Humidity;BMP_temperature;BMP_pressure;BME280_temperature;BME280_humidity;BME280_pressure;Samples;Min_cycle;Max_cycle;Signal;HPM_P1;HPM_P2
2021/05/16 00:02:08;;;;;;;1.00;0.80;;;24.60;60.00;;;;;;5073981;28;20500;-86
2021/05/16 00:04:35;;;;;;;1.13;1.03;;;24.60;60.00;;;;;;5073876;28;20443;-93
2021/05/16 00:07:01;;;;;;;1.40;1.23;;;24.60;60.00;;;;;;5073695;28;20992;-87
2021/05/16 00:09:28;;;;;;;1.17;1.00;;;24.60;60.90;;;;;;5073789;28;20442;-87
2021/05/16 00:11:54;;;;;;;1.00;0.70;;;24.60;60.00;;;;;;5073564;28;20472;-86
2021/05/16 00:14:21;;;;;;;1.10;1.00;;;24.60;60.10;;;;;;5073870;28;20438;-90
2021/05/16 00:16:47;;;;;;;1.40;0.80;;;24.70;60.20;;;;;;5073643;28;20446;-86
2021/05/16 00:19:14;;;;;;;1.20;0.87;;;24.60;60.00;;;;;;5073662;28;20437;-87
2021/05/16 00:21:41;;;;;;;1.23;0.90;;;24.60;60.10;;;;;;5073685;28;20501;-87
2021/05/16 00:24:08;;;;;;;1.20;0.83;;;24.60;60.10;;;;;;5073431;28;20481;-87
2021/05/16 00:26:34;;;;;;;1.23;0.90;;;24.60;60.20;;;;;;5073563;28;20440;-88
2021/05/16 00:29:01;;;;;;;1.80;1.03;;;24.50;60.80;;;;;;5073729;28;20492;-87
2021/05/16 00:31:27;;;;;;;1.17;0.93;;;24.70;60.20;;;;;;5073292;28;20442;-87
2021/05/16 00:33:54;;;;;;;1.20;0.93;;;24.60;60.10;;;;;;5073699;28;20446;-87
2021/05/16 00:36:23;;;;;;;1.93;1.20;;;24.60;60.10;;;;;;5073274;28;20451;-87
2021/05/16 00:38:49;;;;;;;1.10;0.80;;;24.50;60.00;;;;;;5073656;28;20438;-93
2021/05/16 00:41:16;;;;;;;1.67;0.93;;;24.70;60.20;;;;;;5073054;28;20973;-89
2021/05/16 00:43:43;;;;;;;1.30;1.00;;;24.50;60.00;;;;;;5073398;28;20484;-87
2021/05/16 00:46:10;;;;;;;1.10;0.80;;;24.60;60.20;;;;;;5073148;28;20448;-92
2021/05/16 00:48:37;;;;;;;1.57;0.90;;;24.50;60.10;;;;;;5073478;28;20442;-86
2021/05/16 00:51:03;;;;;;;1.00;0.80;;;24.50;60.00;;;;;;5073105;28;20972;-88
2021/05/16 00:53:31;;;;;;;1.67;1.23;;;24.50;60.00;;;;;;5073438;28;20447;-89
2021/05/16 00:55:58;;;;;;;1.10;0.87;;;24.50;60.00;;;;;;5073439;28;20798;-87
2021/05/16 00:58:24;;;;;;;1.07;0.83;;;24.70;60.30;;;;;;5073234;28;20937;-87
2021/05/16 01:00:51;;;;;;;1.20;0.97;;;24.50;60.00;;;;;;5073451;28;20440;-88
2021/05/16 01:03:20;;;;;;;1.83;1.30;;;24.50;60.00;;;;;;5072980;28;21016;-91
2021/05/16 01:05:47;;;;;;;1.10;0.80;;;24.50;60.00;;;;;;5073128;28;20439;-87
2021/05/16 01:08:15;;;;;;;1.20;0.90;;;24.50;60.00;;;;;;5073515;28;20449;-86
2021/05/16 01:10:45;;;;;;;1.20;1.10;;;24.50;60.00;;;;;;5073073;28;20462;-88
2021/05/16 01:13:12;;;;;;;1.10;0.80;;;24.50;60.00;;;;;;5073119;28;20794;-87
2021/05/16 01:15:41;;;;;;;1.10;0.70;;;24.50;60.10;;;;;;5073026;28;20444;-87
2021/05/16 01:18:08;;;;;;;1.10;0.80;;;24.50;60.00;;;;;;5072902;28;20504;-88
2021/05/16 01:20:38;;;;;;;1.23;1.03;;;24.50;60.90;;;;;;5073035;28;20443;-87
2021/05/16 01:23:07;;;;;;;1.27;0.90;;;24.50;60.00;;;;;;5072950;28;21084;-87
2021/05/16 01:25:35;;;;;;;1.20;1.03;;;24.60;60.20;;;;;;5072955;28;20474;-86
2021/05/16 01:28:02;;;;;;;1.20;1.10;;;24.50;60.10;;;;;;5072935;28;20446;-89
2021/05/16 01:30:29;;;;;;;1.10;0.80;;;24.60;60.20;;;;;;5073244;28;20472;-87
2021/05/16 01:32:55;;;;;;;1.73;1.20;;;24.50;60.00;;;;;;5072801;28;20879;-89
2021/05/16 01:35:22;;;;;;;1.50;1.00;;;24.50;60.00;;;;;;5073112;28;20502;-87
2021/05/16 01:37:49;;;;;;;1.60;1.50;;;24.50;60.00;;;;;;5073091;28;20442;-92
2021/05/16 01:40:18;;;;;;;1.23;1.10;;;24.50;60.00;;;;;;5072846;28;20453;-88
2021/05/16 01:42:48;;;;;;;1.40;0.93;;;24.40;60.00;;;;;;5072869;28;20492;-87
2021/05/16 01:45:16;;;;;;;1.10;0.90;;;24.40;60.00;;;;;;5076256;28;20809;-89
2021/05/16 01:47:43;;;;;;;1.30;1.03;;;24.40;60.00;;;;;;5076532;28;20454;-88
2021/05/16 01:50:12;;;;;;;1.40;1.07;;;24.40;60.00;;;;;;5076618;28;20442;-90
2021/05/16 01:52:40;;;;;;;1.10;0.90;;;24.40;60.00;;;;;;5076454;28;20441;-86
2021/05/16 01:55:08;;;;;;;1.67;0.90;;;24.40;60.80;;;;;;5076122;28;20474;-88
2021/05/16 01:57:36;;;;;;;1.10;1.00;;;24.40;60.00;;;;;;5076039;28;20491;-87
2021/05/16 02:00:04;;;;;;;1.30;0.90;;;24.50;60.00;;;;;;5076271;28;20441;-87
2021/05/16 02:02:31;;;;;;;1.10;0.93;;;24.40;60.00;;;;;;5076118;28;20493;-88
2021/05/16 02:04:57;;;;;;;1.83;1.10;;;24.40;60.00;;;;;;5076285;28;20805;-89
2021/05/16 02:07:24;;;;;;;1.10;0.80;;;24.40;60.00;;;;;;5076007;28;20442;-87
2021/05/16 02:09:51;;;;;;;1.20;0.87;;;24.40;60.00;;;;;;5076158;28;20443;-92
2021/05/16 02:12:18;;;;;;;1.37;1.00;;;24.40;60.00;;;;;;5076014;28;20486;-87
2021/05/16 02:14:46;;;;;;;1.30;1.20;;;24.40;60.00;;;;;;5075879;28;20449;-88
2021/05/16 02:17:13;;;;;;;1.20;0.87;;;24.40;60.00;;;;;;5075714;28;20442;-87
2021/05/16 02:19:40;;;;;;;1.10;0.83;;;24.40;60.00;;;;;;5076013;28;20502;-86
2021/05/16 02:22:06;;;;;;;1.20;0.80;;;24.40;60.00;;;;;;5075901;28;20485;-86
2021/05/16 02:24:33;;;;;;;1.23;0.90;;;24.40;60.00;;;;;;5075400;28;20477;-89
2021/05/16 02:27:00;;;;;;;1.27;1.17;;;24.40;60.00;;;;;;5075523;28;20810;-87
2021/05/16 02:29:27;;;;;;;1.67;0.90;;;24.40;60.00;;;;;;5075759;28;20481;-90
2021/05/16 02:31:54;;;;;;;1.20;0.90;;;24.40;60.00;;;;;;5075535;28;20450;-87
2021/05/16 02:34:21;;;;;;;2.23;1.10;;;24.50;60.00;;;;;;5075413;28;20446;-88
2021/05/16 02:36:47;;;;;;;1.30;0.80;;;24.40;59.90;;;;;;5075373;28;20450;-87
2021/05/16 02:39:14;;;;;;;1.53;1.03;;;24.50;60.00;;;;;;5075242;28;20449;-91
2021/05/16 02:41:40;;;;;;;1.10;1.00;;;24.40;59.90;;;;;;5075324;28;20457;-89
2021/05/16 02:44:07;;;;;;;1.60;0.90;;;24.50;60.00;;;;;;5075298;28;20445;-88
2021/05/16 02:46:34;;;;;;;1.30;1.07;;;24.40;59.90;;;;;;5075197;28;20437;-91
2021/05/16 02:49:01;;;;;;;1.20;0.87;;;24.40;59.90;;;;;;5075117;28;20449;-88
2021/05/16 02:51:27;;;;;;;2.13;1.30;;;24.40;59.90;;;;;;5075261;28;20438;-92
2021/05/16 02:53:54;;;;;;;1.30;1.20;;;24.40;59.90;;;;;;5075618;28;20445;-92
2021/05/16 02:56:20;;;;;;;1.20;0.90;;;24.40;59.90;;;;;;5074975;28;20439;-87
2021/05/16 02:58:46;;;;;;;1.53;1.00;;;24.50;60.00;;;;;;5074918;28;20434;-93
2021/05/16 03:01:13;;;;;;;1.20;1.10;;;24.40;59.90;;;;;;5075123;28;20809;-87
2021/05/16 03:03:40;;;;;;;1.20;0.93;;;24.40;59.90;;;;;;5075110;28;20484;-86
2021/05/16 03:06:08;;;;;;;1.30;1.10;;;24.40;59.90;;;;;;5075068;28;20471;-89
2021/05/16 03:08:34;;;;;;;1.70;1.17;;;24.40;59.90;;;;;;5074858;28;20450;-87
2021/05/16 03:11:01;;;;;;;1.40;1.13;;;24.40;59.90;;;;;;5074653;28;20467;-90
2021/05/16 03:13:27;;;;;;;1.60;0.93;;;24.30;59.80;;;;;;5075020;28;20503;-87
2021/05/16 03:15:54;;;;;;;1.00;0.70;;;24.30;59.80;;;;;;5074821;28;20443;-89
2021/05/16 03:18:20;;;;;;;1.50;1.00;;;24.40;59.80;;;;;;5074950;28;20451;-87
2021/05/16 03:20:46;;;;;;;1.30;1.00;;;24.30;59.80;;;;;;5074901;28;20454;-87
2021/05/16 03:23:13;;;;;;;1.93;1.00;;;24.30;59.80;;;;;;5074367;28;20482;-90
2021/05/16 03:25:39;;;;;;;1.23;0.80;;;24.30;59.80;;;;;;5074860;28;20438;-87
2021/05/16 03:28:06;;;;;;;1.00;0.77;;;24.30;59.80;;;;;;5074525;28;20446;-87
2021/05/16 03:30:33;;;;;;;1.20;1.00;;;24.30;60.60;;;;;;5074537;28;20441;-87
2021/05/16 03:33:00;;;;;;;1.60;1.00;;;24.50;59.90;;;;;;5074221;28;20437;-88
2021/05/16 03:35:26;;;;;;;1.10;1.00;;;24.50;59.90;;;;;;5074637;28;20542;-92
2021/05/16 03:37:53;;;;;;;1.67;1.00;;;24.30;59.80;;;;;;5074369;28;20438;-94
2021/05/16 03:40:20;;;;;;;1.90;0.90;;;24.30;59.80;;;;;;5074025;28;20466;-92
2021/05/16 03:42:46;;;;;;;1.47;0.93;;;24.30;59.70;;;;;;5074639;28;20485;-93
2021/05/16 03:45:14;;;;;;;1.10;0.80;;;24.30;59.70;;;;;;5074249;28;20494;-91
2021/05/16 03:47:40;;;;;;;1.50;0.93;;;24.30;60.20;;;;;;5074310;28;20515;-87
2021/05/16 03:50:08;;;;;;;1.20;0.90;;;24.30;59.70;;;;;;5074432;28;20503;-89
2021/05/16 03:52:34;;;;;;;1.10;0.80;;;24.30;59.80;;;;;;5074208;28;20789;-89
2021/05/16 03:55:01;;;;;;;1.30;0.90;;;24.30;59.70;;;;;;5074281;28;20439;-89
2021/05/16 03:57:28;;;;;;;1.30;0.77;;;24.30;59.70;;;;;;5074122;28;20453;-86
2021/05/16 03:59:54;;;;;;;1.30;0.80;;;24.30;59.70;;;;;;5075033;28;20441;-87
2021/05/16 04:02:20;;;;;;;1.37;0.93;;;24.30;60.40;;;;;;5074012;28;20484;-86
2021/05/16 04:04:47;;;;;;;1.37;1.07;;;24.30;60.40;;;;;;5075198;28;20460;-89
2021/05/16 04:07:13;;;;;;;1.30;1.00;;;24.30;59.70;;;;;;5073725;28;20781;-87
2021/05/16 04:09:39;;;;;;;1.00;0.80;;;24.30;59.70;;;;;;5073729;28;20446;-92
2021/05/16 04:12:07;;;;;;;1.03;0.80;;;24.30;59.70;;;;;;5073615;28;20466;-89
2021/05/16 04:14:34;;;;;;;1.30;0.80;;;24.30;59.70;;;;;;5073983;28;20448;-89
2021/05/16 04:17:00;;;;;;;1.30;0.90;;;24.30;59.70;;;;;;5073877;28;20817;-87
2021/05/16 04:19:27;;;;;;;1.23;0.90;;;24.40;59.80;;;;;;5074005;28;20583;-87
2021/05/16 04:21:53;;;;;;;1.40;1.00;;;24.20;59.60;;;;;;5073518;28;20442;-89
2021/05/16 04:24:19;;;;;;;1.30;0.83;;;24.30;59.70;;;;;;5073331;28;21014;-91
2021/05/16 04:26:45;;;;;;;1.40;0.90;;;24.30;59.70;;;;;;5073804;28;20440;-87
2021/05/16 04:29:12;;;;;;;1.37;0.97;;;24.30;59.70;;;;;;5073806;28;20444;-86
2021/05/16 04:31:39;;;;;;;1.50;1.10;;;24.40;59.80;;;;;;5073796;28;20446;-91
2021/05/16 04:34:05;;;;;;;1.10;0.90;;;24.20;59.70;;;;;;5073885;28;20452;-87
2021/05/16 04:36:32;;;;;;;1.30;0.80;;;24.20;59.70;;;;;;5073450;28;20456;-87
2021/05/16 04:38:58;;;;;;;1.10;0.90;;;24.20;59.70;;;;;;5073703;28;20449;-91
2021/05/16 04:41:24;;;;;;;1.00;0.80;;;24.20;59.70;;;;;;5073977;28;20466;-88
2021/05/16 04:43:51;;;;;;;1.60;0.90;;;24.30;59.70;;;;;;5073638;28;20543;-87
2021/05/16 04:46:17;;;;;;;1.13;0.90;;;24.30;59.80;;;;;;5074508;28;20452;-92
2021/05/16 04:48:44;;;;;;;1.20;0.93;;;24.20;59.70;;;;;;5073630;28;20464;-88
2021/05/16 04:51:10;;;;;;;1.73;1.03;;;24.30;59.80;;;;;;5073656;28;20457;-94
2021/05/16 04:53:37;;;;;;;2.87;1.20;;;24.20;59.70;;;;;;5073710;28;20442;-89
2021/05/16 04:56:04;;;;;;;1.27;0.80;;;24.20;59.70;;;;;;5073333;28;20981;-87
2021/05/16 04:58:31;;;;;;;1.57;0.90;;;24.20;59.70;;;;;;5073579;28;20484;-87
2021/05/16 05:00:57;;;;;;;1.17;0.70;;;24.20;59.70;;;;;;5073315;28;20433;-89
2021/05/16 05:03:24;;;;;;;1.20;0.90;;;24.20;59.70;;;;;;5073320;28;20485;-93
2021/05/16 05:05:53;;;;;;;1.77;1.00;;;24.30;59.80;;;;;;5073515;28;20446;-87
2021/05/16 05:08:20;;;;;;;1.87;1.00;;;24.20;59.80;;;;;;5073413;28;20559;-94
2021/05/16 05:10:46;;;;;;;1.00;0.80;;;24.40;59.90;;;;;;5073318;28;20461;-88
2021/05/16 05:13:13;;;;;;;1.20;0.87;;;24.20;59.80;;;;;;5073376;28;20803;-92
2021/05/16 05:15:39;;;;;;;1.20;1.00;;;24.20;59.80;;;;;;5073296;28;20452;-87
2021/05/16 05:18:06;;;;;;;1.10;0.90;;;24.20;59.80;;;;;;5073036;28;20437;-89
2021/05/16 05:20:32;;;;;;;1.53;1.00;;;24.20;59.80;;;;;;5076981;28;20453;-87
2021/05/16 05:23:00;;;;;;;1.40;1.00;;;24.20;59.80;;;;;;5076879;28;20488;-90
2021/05/16 05:25:27;;;;;;;1.20;0.90;;;24.30;59.90;;;;;;5076535;28;20469;-87
2021/05/16 05:27:54;;;;;;;1.20;1.00;;;24.20;59.80;;;;;;5076745;28;20442;-87
2021/05/16 05:30:21;;;;;;;1.00;0.90;;;24.20;59.80;;;;;;5076926;28;20430;-86
2021/05/16 05:32:47;;;;;;;1.20;0.90;;;24.20;59.80;;;;;;5076815;28;20438;-87
2021/05/16 05:35:14;;;;;;;1.50;0.97;;;24.30;59.90;;;;;;5076764;28;20437;-89
2021/05/16 05:37:40;;;;;;;1.00;0.80;;;24.20;59.80;;;;;;5076634;28;20447;-85
2021/05/16 05:40:08;;;;;;;1.00;0.80;;;24.30;59.80;;;;;;5076205;28;20514;-87
2021/05/16 05:42:35;;;;;;;1.20;0.80;;;24.20;59.80;;;;;;5076171;28;20865;-88
2021/05/16 05:45:01;;;;;;;1.50;1.23;;;24.20;59.80;;;;;;5076354;28;20437;-87
2021/05/16 05:47:27;;;;;;;1.20;1.00;;;24.30;59.80;;;;;;5076215;28;20436;-86
2021/05/16 05:49:53;;;;;;;1.20;1.00;;;24.20;59.80;;;;;;5076527;28;20447;-87
2021/05/16 05:52:20;;;;;;;1.10;0.80;;;24.20;59.70;;;;;;5075993;28;20430;-89
2021/05/16 05:54:46;;;;;;;1.60;1.10;;;24.20;59.70;;;;;;5076112;28;20932;-86
2021/05/16 05:57:13;;;;;;;1.73;1.00;;;24.20;59.80;;;;;;5076012;28;20963;-87
2021/05/16 05:59:40;;;;;;;1.27;1.00;;;24.20;59.80;;;;;;5075976;28;20443;-87
2021/05/16 06:02:06;;;;;;;1.90;0.93;;;24.20;59.80;;;;;;5075879;28;20472;-87
2021/05/16 06:04:32;;;;;;;1.10;1.00;;;24.20;59.80;;;;;;5075866;28;20448;-86
2021/05/16 06:06:59;;;;;;;1.40;1.00;;;24.20;59.80;;;;;;5075919;28;20438;-88
2021/05/16 06:09:25;;;;;;;1.50;1.33;;;24.30;59.90;;;;;;5075699;28;20449;-87
2021/05/16 06:11:51;;;;;;;1.40;0.90;;;24.30;59.90;;;;;;5075559;28;20477;-90
2021/05/16 06:14:18;;;;;;;1.10;0.90;;;24.30;59.90;;;;;;5075831;28;20831;-87
2021/05/16 06:16:45;;;;;;;1.03;0.87;;;24.20;59.90;;;;;;5075886;28;20494;-85
2021/05/16 06:19:11;;;;;;;1.43;0.93;;;24.20;59.90;;;;;;5075697;28;20945;-87
2021/05/16 06:21:38;;;;;;;1.30;1.00;;;24.20;59.90;;;;;;5075657;28;20446;-91
2021/05/16 06:24:06;;;;;;;1.50;1.30;;;24.20;59.90;;;;;;5075254;28;20489;-86
2021/05/16 06:26:36;;;;;;;1.40;1.00;;;24.20;59.90;;;;;;5075767;28;20446;-86
2021/05/16 06:29:03;;;;;;;1.50;1.07;;;24.20;59.80;;;;;;5075253;28;20509;-91
2021/05/16 06:31:30;;;;;;;1.90;1.37;;;24.20;59.80;;;;;;5075574;28;20457;-86
2021/05/16 06:33:56;;;;;;;1.47;1.20;;;24.20;59.80;;;;;;5075636;28;20441;-89
2021/05/16 06:36:23;;;;;;;1.27;1.07;;;24.20;59.80;;;;;;5075656;28;20448;-85
2021/05/16 06:38:49;;;;;;;1.97;1.30;;;24.20;59.80;;;;;;5075668;28;20767;-87
2021/05/16 06:41:16;;;;;;;1.20;1.00;;;24.20;59.70;;;;;;5075401;28;20962;-87
2021/05/16 06:43:42;;;;;;;1.20;1.10;;;24.20;59.80;;;;;;5075056;28;20489;-90
2021/05/16 06:46:08;;;;;;;1.70;1.00;;;24.20;59.70;;;;;;5075190;28;20445;-89
2021/05/16 06:48:36;;;;;;;1.60;1.20;;;24.10;59.70;;;;;;5075872;28;20461;-87
2021/05/16 06:51:03;;;;;;;2.33;1.30;;;24.30;59.80;;;;;;5075076;28;20449;-87
2021/05/16 06:53:29;;;;;;;1.33;1.20;;;24.20;59.70;;;;;;5075881;28;20528;-88
2021/05/16 06:55:56;;;;;;;1.60;1.30;;;24.20;59.80;;;;;;5075225;28;20938;-89
2021/05/16 06:58:22;;;;;;;2.10;0.90;;;24.20;59.80;;;;;;5074967;28;20441;-87
2021/05/16 07:00:48;;;;;;;1.57;1.30;;;24.20;59.70;;;;;;5074975;28;20486;-88
2021/05/16 07:03:15;;;;;;;1.47;1.30;;;24.20;59.70;;;;;;5075368;28;20497;-88
2021/05/16 07:05:42;;;;;;;1.70;1.60;;;24.30;59.80;;;;;;5074780;28;20437;-87
2021/05/16 07:08:08;;;;;;;2.00;1.40;;;24.30;59.90;;;;;;5075095;28;20503;-91
2021/05/16 07:10:34;;;;;;;1.33;1.13;;;24.20;59.90;;;;;;5074964;28;20462;-87
2021/05/16 07:13:01;;;;;;;1.60;1.50;;;24.20;59.90;;;;;;5074868;28;20445;-86
2021/05/16 07:15:27;;;;;;;2.43;1.50;;;24.20;59.80;;;;;;5074806;28;20931;-86
2021/05/16 07:17:53;;;;;;;1.83;1.37;;;24.20;59.60;;;;;;5074419;28;20441;-89
2021/05/16 07:20:20;;;;;;;2.00;1.20;;;24.20;59.50;;;;;;5074419;28;20441;-88
2021/05/16 07:22:49;;;;;;;2.30;1.47;;;24.30;59.50;;;;;;5074500;28;20477;-88
2021/05/16 07:25:17;;;;;;;1.83;1.30;;;24.20;59.50;;;;;;5074243;28;20469;-87
2021/05/16 07:27:43;;;;;;;1.97;1.20;;;24.20;59.50;;;;;;5074288;28;20497;-87
2021/05/16 07:30:11;;;;;;;1.50;1.30;;;24.20;59.50;;;;;;5074392;28;20496;-87
2021/05/16 07:32:37;;;;;;;2.90;1.30;;;24.20;59.50;;;;;;5074374;28;20437;-89
2021/05/16 07:35:05;;;;;;;2.97;1.47;;;24.40;59.70;;;;;;5074048;28;20446;-86
2021/05/16 07:37:31;;;;;;;3.47;1.60;;;24.30;59.60;;;;;;5074049;28;20441;-86
2021/05/16 07:39:58;;;;;;;2.30;1.70;;;24.20;59.60;;;;;;5074194;28;20755;-87
2021/05/16 07:42:25;;;;;;;3.00;1.43;;;24.30;59.70;;;;;;5073029;28;20480;-88
2021/05/16 07:44:51;;;;;;;2.40;1.50;;;24.30;59.70;;;;;;5073855;28;20453;-86
2021/05/16 07:47:18;;;;;;;1.83;1.30;;;24.40;59.80;;;;;;5073705;28;20450;-88
2021/05/16 07:49:45;;;;;;;2.00;1.30;;;24.30;59.60;;;;;;5074108;28;20442;-87
2021/05/16 07:52:11;;;;;;;1.93;1.33;;;24.30;59.60;;;;;;5073804;28;20450;-87
2021/05/16 07:54:38;;;;;;;3.60;1.60;;;24.30;59.70;;;;;;5073929;28;20445;-88
2021/05/16 07:57:08;;;;;;;3.90;1.50;;;24.30;59.70;;;;;;5074000;28;20955;-87
2021/05/16 07:59:34;;;;;;;3.50;1.60;;;24.30;59.70;;;;;;5073709;28;20537;-86
2021/05/16 08:02:00;;;;;;;1.97;1.60;;;24.30;59.70;;;;;;5074842;28;20446;-87
2021/05/16 08:04:27;;;;;;;2.73;1.90;;;24.30;59.70;;;;;;5073826;28;20984;-89
2021/05/16 08:06:55;;;;;;;2.27;1.20;;;24.30;59.60;;;;;;5073622;28;20450;-87
2021/05/16 08:09:21;;;;;;;2.07;1.37;;;24.40;59.70;;;;;;5074852;28;20442;-88
2021/05/16 08:11:47;;;;;;;2.20;1.30;;;24.30;59.50;;;;;;5073770;28;20464;-87
2021/05/16 08:14:15;;;;;;;1.93;1.37;;;24.30;59.60;;;;;;5073871;28;20448;-88
2021/05/16 08:16:41;;;;;;;2.57;1.50;;;24.30;59.80;;;;;;5073444;28;20434;-84
2021/05/16 08:19:08;;;;;;;3.00;1.30;;;24.30;59.60;;;;;;5073549;28;20953;-89
2021/05/16 08:21:34;;;;;;;3.83;1.20;;;24.30;59.60;;;;;;5073608;28;20437;-88
2021/05/16 08:24:00;;;;;;;3.53;1.40;;;24.30;59.80;;;;;;5073512;28;20588;-87
2021/05/16 08:26:27;;;;;;;1.53;1.03;;;24.40;59.80;;;;;;5073961;28;20490;-87
2021/05/16 08:28:53;;;;;;;2.40;1.40;;;24.30;59.60;;;;;;5073445;28;20476;-87
2021/05/16 08:31:20;;;;;;;1.60;1.37;;;24.30;59.50;;;;;;5073418;28;20445;-87
2021/05/16 08:33:46;;;;;;;1.63;1.07;;;24.30;59.50;;;;;;5073706;28;20806;-87
2021/05/16 08:36:13;;;;;;;2.20;1.30;;;24.30;59.50;;;;;;5073483;28;20443;-88
2021/05/16 08:38:39;;;;;;;2.33;1.50;;;24.30;59.50;;;;;;5073477;28;20456;-88
2021/05/16 08:41:05;;;;;;;3.40;1.50;;;24.30;59.60;;;;;;5073332;28;20463;-87
2021/05/16 08:43:31;;;;;;;3.97;1.60;;;24.40;59.90;;;;;;5073436;28;20484;-87
2021/05/16 08:45:58;;;;;;;3.63;1.70;;;24.50;60.00;;;;;;5073509;28;20444;-87
2021/05/16 08:48:29;;;;;;;1.67;1.40;;;24.40;60.30;;;;;;5073318;28;20491;-87
2021/05/16 08:50:56;;;;;;;3.50;1.67;;;24.50;60.20;;;;;;5073324;28;20995;-87
2021/05/16 08:53:22;;;;;;;3.30;1.30;;;24.50;60.30;;;;;;5075898;28;20450;-88
2021/05/16 08:55:49;;;;;;;2.40;1.57;;;24.50;60.30;;;;;;5077504;28;20445;-87
2021/05/16 08:58:15;;;;;;;2.53;1.40;;;24.50;60.10;;;;;;5077273;28;20455;-87
2021/05/16 09:00:44;;;;;;;1.27;1.00;;;24.50;60.00;;;;;;5077357;28;20495;-89
2021/05/16 09:03:12;;;;;;;1.60;1.00;;;24.50;60.00;;;;;;5076904;28;20489;-88
2021/05/16 09:05:40;;;;;;;1.43;1.17;;;24.50;60.00;;;;;;5077259;28;20848;-87
2021/05/16 09:08:11;;;;;;;2.80;1.30;;;24.50;60.00;;;;;;5076927;28;20528;-87
2021/05/16 09:10:38;;;;;;;2.60;1.20;;;24.50;60.00;;;;;;5077412;28;20835;-87
2021/05/16 09:13:09;;;;;;;1.67;1.10;;;24.50;60.10;;;;;;5077049;28;20456;-87
2021/05/16 09:15:35;;;;;;;2.17;1.20;;;24.50;60.10;;;;;;5077266;28;20804;-88
2021/05/16 09:18:02;;;;;;;1.30;1.00;;;24.50;60.00;;;;;;5076871;28;20450;-88
2021/05/16 09:20:28;;;;;;;1.80;1.07;;;24.50;60.10;;;;;;5076764;28;20443;-87
2021/05/16 09:22:55;;;;;;;1.63;1.23;;;24.60;60.20;;;;;;5076774;28;20474;-87
2021/05/16 09:25:24;;;;;;;1.50;1.00;;;24.60;60.30;;;;;;5076540;28;20481;-86
2021/05/16 09:27:52;;;;;;;2.70;1.60;;;24.60;60.30;;;;;;5076877;28;20556;-87
2021/05/16 09:30:28;;;;;;;2.30;1.20;;;24.60;60.20;;;;;;5077217;28;20445;-89
2021/05/16 09:32:55;;;;;;;1.50;1.20;;;24.60;60.10;;;;;;5076631;28;20436;-87
2021/05/16 09:35:36;;;;;;;2.53;1.10;;;24.60;60.10;;;;;;5077167;28;20870;-87
2021/05/16 09:38:06;;;;;;;3.00;1.03;;;24.60;60.10;;;;;;5077342;28;20886;-87
2021/05/16 09:40:33;;;;;;;2.80;1.90;;;24.60;60.20;;;;;;5076269;28;21003;-91
2021/05/16 09:43:22;;;;;;;1.27;0.97;;;24.60;60.30;;;;;;5076250;28;20559;-87
2021/05/16 09:45:51;;;;;;;1.87;1.20;;;24.70;60.40;;;;;;5072824;28;20450;-88
2021/05/16 09:48:28;;;;;;;2.60;1.07;;;24.70;61.30;;;;;;5076164;28;20801;-88
2021/05/16 09:51:19;;;;;;;1.70;1.40;;;24.70;60.50;;;;;;5076489;28;20469;-87
2021/05/16 09:53:58;;;;;;;1.37;1.27;;;24.70;60.60;;;;;;5052361;28;20442;-88
2021/05/16 09:56:26;;;;;;;1.60;1.10;;;24.70;60.60;;;;;;5076001;28;20793;-87
2021/05/16 09:58:54;;;;;;;1.13;1.03;;;24.70;60.60;;;;;;5076141;28;20857;-87
2021/05/16 10:01:22;;;;;;;6.60;1.40;;;24.80;60.70;;;;;;5076051;28;21123;-87
2021/05/16 10:03:49;;;;;;;1.07;0.87;;;24.80;60.70;;;;;;5075302;28;20482;-91
2021/05/16 10:06:17;;;;;;;1.50;1.30;;;24.80;60.60;;;;;;5076021;28;20796;-87
2021/05/16 10:08:47;;;;;;;1.37;1.27;;;25.00;60.90;;;;;;5076052;28;20515;-87
2021/05/16 10:11:15;;;;;;;1.50;1.20;;;24.80;60.60;;;;;;5076198;28;20860;-86
2021/05/16 10:13:47;;;;;;;1.47;1.03;;;25.00;60.90;;;;;;5075629;28;20445;-89
2021/05/16 10:16:17;;;;;;;1.47;1.00;;;24.90;60.80;;;;;;5075973;28;20430;-88
2021/05/16 10:18:46;;;;;;;1.40;0.90;;;24.90;60.90;;;;;;5075934;28;20442;-88
2021/05/16 10:21:12;;;;;;;1.93;1.30;;;24.80;60.70;;;;;;5075974;28;20445;-87
2021/05/16 10:23:40;;;;;;;1.27;1.17;;;24.90;60.90;;;;;;5075425;28;20503;-91
2021/05/16 10:26:25;;;;;;;1.10;1.00;;;24.80;60.70;;;;;;5075557;28;20493;-88
2021/05/16 10:28:57;;;;;;;1.53;1.07;;;24.90;60.80;;;;;;5075410;28;20455;-87
2021/05/16 10:31:50;;;;;;;2.90;1.27;;;25.00;60.90;;;;;;5075791;28;20440;-86
2021/05/16 10:34:42;;;;;;;1.60;1.20;;;24.90;60.80;;;;;;5075465;28;20449;-88
2021/05/16 10:37:39;;;;;;;1.03;0.80;;;24.90;60.80;;;;;;5075549;28;20571;-88
2021/05/16 10:40:16;;;;;;;1.30;1.13;;;24.90;60.80;;;;;;5068170;28;21045;-86
2021/05/16 10:42:44;;;;;;;1.50;1.10;;;24.80;60.70;;;;;;5075975;28;20541;-89
2021/05/16 10:45:13;;;;;;;1.87;1.20;;;24.80;60.60;;;;;;5075230;28;20452;-89
2021/05/16 10:48:11;;;;;;;4.80;1.10;;;25.00;60.80;;;;;;5075338;28;20447;-89
2021/05/16 10:51:00;;;;;;;1.10;0.90;;;24.90;60.50;;;;;;5075104;28;20435;-89
2021/05/16 10:53:39;;;;;;;1.50;1.00;;;24.80;60.50;;;;;;5075316;28;20868;-89
2021/05/16 10:56:17;;;;;;;2.40;1.40;;;24.80;60.70;;;;;;5075197;28;20434;-89
2021/05/16 10:58:48;;;;;;;1.73;1.00;;;24.90;60.70;;;;;;5075147;28;20438;-89
2021/05/16 11:01:15;;;;;;;3.20;1.20;;;25.00;60.90;;;;;;5075133;28;20439;-90
2021/05/16 11:03:47;;;;;;;1.27;1.17;;;24.90;60.80;;;;;;5074619;28;20548;-90
2021/05/16 11:06:13;;;;;;;1.40;1.07;;;24.90;60.90;;;;;;5074966;28;20439;-91
2021/05/16 11:09:11;;;;;;;1.30;1.10;;;24.90;60.90;;;;;;5074565;28;20446;-89
2021/05/16 11:11:40;;;;;;;1.30;0.93;;;25.00;60.80;;;;;;5074527;28;20557;-89
2021/05/16 11:14:21;;;;;;;1.40;1.20;;;24.90;60.80;;;;;;5074721;28;20448;-89
2021/05/16 11:16:53;;;;;;;1.47;1.20;;;24.90;60.60;;;;;;5074507;28;20442;-89
2021/05/16 11:19:21;;;;;;;1.30;0.90;;;24.90;60.80;;;;;;5074721;28;20442;-89
2021/05/16 11:21:48;;;;;;;1.20;1.07;;;25.00;60.90;;;;;;5074536;28;20442;-89
2021/05/16 11:24:15;;;;;;;1.40;1.20;;;24.90;60.70;;;;;;5074306;28;20505;-90
2021/05/16 11:26:42;;;;;;;1.00;0.77;;;25.00;60.80;;;;;;5074292;28;20534;-91
2021/05/16 11:29:10;;;;;;;1.40;1.03;;;24.90;60.70;;;;;;5074342;28;20454;-89
2021/05/16 11:31:37;;;;;;;1.30;1.10;;;25.00;61.70;;;;;;5074521;28;20444;-89
2021/05/16 11:34:06;;;;;;;2.27;1.00;;;25.10;60.80;;;;;;5074547;28;20452;-92
2021/05/16 11:36:38;;;;;;;1.40;1.00;;;25.10;60.90;;;;;;5074374;28;20824;-89
2021/05/16 11:39:08;;;;;;;1.10;0.90;;;25.20;60.90;;;;;;5074392;28;20433;-89
2021/05/16 11:41:37;;;;;;;1.60;1.00;;;25.10;60.70;;;;;;5074785;28;20459;-89
2021/05/16 11:44:05;;;;;;;1.17;0.90;;;25.10;60.70;;;;;;5074194;28;20493;-92
2021/05/16 11:46:33;;;;;;;1.00;0.73;;;25.10;60.70;;;;;;5074114;28;20442;-89
2021/05/16 11:49:02;;;;;;;1.10;0.97;;;25.10;60.80;;;;;;5073942;28;20479;-89
2021/05/16 11:51:31;;;;;;;1.23;0.97;;;25.10;60.80;;;;;;5073844;28;20948;-88
2021/05/16 11:54:00;;;;;;;1.50;1.10;;;25.10;60.70;;;;;;5074027;28;20452;-88
2021/05/16 11:56:29;;;;;;;1.10;0.97;;;25.10;60.80;;;;;;5074002;28;20450;-90
2021/05/16 11:58:57;;;;;;;1.23;0.90;;;25.10;60.80;;;;;;5074092;28;20442;-90
2021/05/16 12:01:25;;;;;;;1.10;0.70;;;25.10;60.80;;;;;;5073960;28;20526;-89
2021/05/16 12:03:57;;;;;;;1.20;0.90;;;25.20;60.90;;;;;;5073735;28;20520;-89
2021/05/16 12:06:25;;;;;;;1.30;0.90;;;25.20;60.90;;;;;;5073896;28;20945;-89
2021/05/16 12:09:07;;;;;;;1.20;0.80;;;25.10;61.00;;;;;;5073719;28;20450;-93
2021/05/16 12:11:34;;;;;;;1.30;0.93;;;25.20;60.90;;;;;;5073978;28;20467;-94
2021/05/16 12:14:09;;;;;;;1.20;0.97;;;25.20;61.10;;;;;;5073587;28;20451;-89
2021/05/16 12:16:36;;;;;;;1.23;0.80;;;25.20;60.90;;;;;;5074280;28;20441;-92
2021/05/16 12:19:04;;;;;;;1.30;1.10;;;25.20;60.90;;;;;;5074058;28;20437;-92
2021/05/16 12:21:34;;;;;;;1.10;0.90;;;25.20;60.90;;;;;;5074055;28;20431;-90
2021/05/16 12:24:02;;;;;;;1.90;0.90;;;25.20;60.90;;;;;;5073778;28;20520;-90
2021/05/16 12:26:32;;;;;;;1.20;0.87;;;25.30;61.00;;;;;;5073724;28;20440;-88
2021/05/16 12:28:59;;;;;;;1.57;1.07;;;25.20;61.00;;;;;;5072964;28;20911;-89
2021/05/16 12:31:26;;;;;;;1.20;0.90;;;25.30;61.00;;;;;;5073526;28;20443;-89
2021/05/16 12:33:54;;;;;;;1.57;0.90;;;25.30;61.00;;;;;;5073512;28;20446;-88
2021/05/16 12:36:20;;;;;;;1.70;1.00;;;25.30;60.70;;;;;;5073688;28;20898;-88
2021/05/16 12:38:49;;;;;;;1.00;0.80;;;25.20;60.80;;;;;;5073743;28;20438;-90
2021/05/16 12:41:18;;;;;;;1.80;1.10;;;25.30;60.80;;;;;;5073345;28;20471;-89
2021/05/16 12:44:00;;;;;;;1.10;0.83;;;25.20;60.70;;;;;;5073519;28;20491;-89
2021/05/16 12:46:42;;;;;;;1.03;0.90;;;25.20;60.80;;;;;;5073475;28;20443;-88
2021/05/16 12:49:08;;;;;;;1.17;0.90;;;25.40;60.90;;;;;;5073423;28;20535;-88
2021/05/16 12:51:34;;;;;;;1.20;0.93;;;25.20;60.80;;;;;;5073111;28;20959;-88
2021/05/16 12:54:19;;;;;;;1.07;0.80;;;25.20;60.60;;;;;;5073412;28;20529;-88